sensor_id;sensor_type;location;lat;lon;timestamp;pressure;altitude;pressure_sealevel;temperature;humidity
38716;BME280;24833;49.324;8.694;2023-05-21T00:01:55;99417.16;;;17.13;46.28
38716;BME280;24833;49.324;8.694;2023-05-21T00:04:22;99417.44;;;17.12;45.75
38716;BME280;24833;49.324;8.694;2023-05-21T00:06:51;99412.25;;;17.10;46.32
38716;BME280;24833;49.324;8.694;2023-05-21T00:09:18;99413.31;;;17.09;46.44
38716;BME280;24833;49.324;8.694;2023-05-21T00:11:45;99427.88;;;17.08;45.98
38716;BME280;24833;49.324;8.694;2023-05-21T00:14:12;99420.84;;;17.07;46.49
38716;BME280;24833;49.324;8.694;2023-05-21T00:16:39;99421.91;;;17.06;46.42
38716;BME280;24833;49.324;8.694;2023-05-21T00:19:06;99420.28;;;17.05;46.51
38716;BME280;24833;49.324;8.694;2023-05-21T00:21:33;99420.28;;;17.05;46.62
38716;BME280;24833;49.324;8.694;2023-05-21T00:24:00;99419.69;;;17.03;47.05
38716;BME280;24833;49.324;8.694;2023-05-21T00:26:27;99417.25;;;17.02;46.60
38716;BME280;24833;49.324;8.694;2023-05-21T00:28:56;99413.19;;;16.99;46.67
38716;BME280;24833;49.324;8.694;2023-05-21T00:31:23;99408.00;;;16.98;46.59
38716;BME280;24833;49.324;8.694;2023-05-21T00:33:50;99400.97;;;16.97;46.70
38716;BME280;24833;49.324;8.694;2023-05-21T00:36:17;99410.97;;;16.96;47.06
38716;BME280;24833;49.324;8.694;2023-05-21T00:38:50;99408.50;;;16.95;47.32
38716;BME280;24833;49.324;8.694;2023-05-21T00:41:17;99400.69;;;16.93;47.05
38716;BME280;24833;49.324;8.694;2023-05-21T00:43:44;99400.09;;;16.91;46.88
38716;BME280;24833;49.324;8.694;2023-05-21T00:46:16;99398.44;;;16.90;46.76
38716;BME280;24833;49.324;8.694;2023-05-21T00:48:44;99387.91;;;16.88;47.02
38716;BME280;24833;49.324;8.694;2023-05-21T00:51:16;99396.25;;;16.87;46.77
38716;BME280;24833;49.324;8.694;2023-05-21T00:53:44;99391.94;;;16.86;46.75
38716;BME280;24833;49.324;8.694;2023-05-21T00:56:12;99387.56;;;16.85;47.13
38716;BME280;24833;49.324;8.694;2023-05-21T00:58:40;99395.66;;;16.85;47.41
38716;BME280;24833;49.324;8.694;2023-05-21T01:01:07;99379.75;;;16.83;47.49
38716;BME280;24833;49.324;8.694;2023-05-21T01:03:39;99388.09;;;16.82;47.42
38716;BME280;24833;49.324;8.694;2023-05-21T01:06:09;99383.75;;;16.81;47.63
38716;BME280;24833;49.324;8.694;2023-05-21T01:08:36;99381.31;;;16.79;47.19
38716;BME280;24833;49.324;8.694;2023-05-21T01:11:06;99378.84;;;16.78;46.88
38716;BME280;24833;49.324;8.694;2023-05-21T01:13:38;99379.91;;;16.77;47.18
38716;BME280;24833;49.324;8.694;2023-05-21T01:16:06;99372.88;;;16.76;47.78
38716;BME280;24833;49.324;8.694;2023-05-21T01:18:35;99376.66;;;16.75;48.42
38716;BME280;24833;49.324;8.694;2023-05-21T01:21:04;99372.56;;;16.72;47.45
38716;BME280;24833;49.324;8.694;2023-05-21T01:23:33;99369.50;;;16.69;47.91
38716;BME280;24833;49.324;8.694;2023-05-21T01:26:00;99372.19;;;16.69;47.93
38716;BME280;24833;49.324;8.694;2023-05-21T01:28:27;99367.31;;;16.66;48.21
38716;BME280;24833;49.324;8.694;2023-05-21T01:30:56;99371.03;;;16.65;47.82
38716;BME280;24833;49.324;8.694;2023-05-21T01:33:36;99364.53;;;16.60;45.39
38716;BME280;24833;49.324;8.694;2023-05-21T01:36:17;99362.91;;;16.59;47.07
38716;BME280;24833;49.324;8.694;2023-05-21T01:38:59;99361.25;;;16.58;48.09
38716;BME280;24833;49.324;8.694;2023-05-21T01:41:33;99356.34;;;16.55;47.31
38716;BME280;24833;49.324;8.694;2023-05-21T01:44:05;99362.81;;;16.54;47.65
38716;BME280;24833;49.324;8.694;2023-05-21T01:46:34;99352.28;;;16.53;47.84
38716;BME280;24833;49.324;8.694;2023-05-21T01:49:04;99353.56;;;16.50;47.96
38716;BME280;24833;49.324;8.694;2023-05-21T01:51:34;99354.63;;;16.49;47.91
38716;BME280;24833;49.324;8.694;2023-05-21T01:54:02;99352.19;;;16.48;49.04
38716;BME280;24833;49.324;8.694;2023-05-21T01:56:29;99347.03;;;16.46;47.84
38716;BME280;24833;49.324;8.694;2023-05-21T01:58:59;99350.81;;;16.45;48.11
38716;BME280;24833;49.324;8.694;2023-05-21T02:01:26;99346.69;;;16.43;47.83
38716;BME280;24833;49.324;8.694;2023-05-21T02:03:56;99350.47;;;16.42;47.87
38716;BME280;24833;49.324;8.694;2023-05-21T02:06:24;99355.84;;;16.42;48.35
38716;BME280;24833;49.324;8.694;2023-05-21T02:08:51;99345.31;;;16.40;48.94
38716;BME280;24833;49.324;8.694;2023-05-21T02:11:18;99346.38;;;16.39;48.52
38716;BME280;24833;49.324;8.694;2023-05-21T02:13:45;99340.41;;;16.37;48.25
38716;BME280;24833;49.324;8.694;2023-05-21T02:16:12;99346.84;;;16.36;48.57
38716;BME280;24833;49.324;8.694;2023-05-21T02:18:41;99341.72;;;16.34;48.92
38716;BME280;24833;49.324;8.694;2023-05-21T02:21:12;99340.09;;;16.33;48.47
38716;BME280;24833;49.324;8.694;2023-05-21T02:23:40;99353.56;;;16.33;48.68
38716;BME280;24833;49.324;8.694;2023-05-21T02:26:08;99343.84;;;16.32;48.68
38716;BME280;24833;49.324;8.694;2023-05-21T02:28:35;99345.72;;;16.32;48.63
38716;BME280;24833;49.324;8.694;2023-05-21T02:31:02;99341.63;;;16.29;48.85
38716;BME280;24833;49.324;8.694;2023-05-21T02:33:29;99334.59;;;16.28;48.81
38716;BME280;24833;49.324;8.694;2023-05-21T02:35:56;99336.47;;;16.28;49.27
38716;BME280;24833;49.324;8.694;2023-05-21T02:38:24;99330.53;;;16.26;48.81
38716;BME280;24833;49.324;8.694;2023-05-21T02:40:51;99326.19;;;16.25;48.61
38716;BME280;24833;49.324;8.694;2023-05-21T02:43:18;99333.69;;;16.23;48.96
38716;BME280;24833;49.324;8.694;2023-05-21T02:45:46;99333.13;;;16.21;48.64
38716;BME280;24833;49.324;8.694;2023-05-21T02:48:13;99331.50;;;16.20;48.84
38716;BME280;24833;49.324;8.694;2023-05-21T02:50:41;99333.59;;;16.18;48.65
38716;BME280;24833;49.324;8.694;2023-05-21T02:53:08;99326.59;;;16.17;48.80
38716;BME280;24833;49.324;8.694;2023-05-21T02:55:35;99328.47;;;16.16;48.77
38716;BME280;24833;49.324;8.694;2023-05-21T02:58:03;99323.31;;;16.15;48.66
38716;BME280;24833;49.324;8.694;2023-05-21T03:00:30;99328.72;;;16.15;49.18
38716;BME280;24833;49.324;8.694;2023-05-21T03:02:59;99327.09;;;16.14;48.64
38716;BME280;24833;49.324;8.694;2023-05-21T03:05:26;99332.47;;;16.14;48.82
38716;BME280;24833;49.324;8.694;2023-05-21T03:07:53;99332.72;;;16.12;49.04
38716;BME280;24833;49.324;8.694;2023-05-21T03:10:20;99335.63;;;16.11;49.24
38716;BME280;24833;49.324;8.694;2023-05-21T03:12:47;99333.75;;;16.11;49.39
38716;BME280;24833;49.324;8.694;2023-05-21T03:15:15;99337.50;;;16.10;49.40
38716;BME280;24833;49.324;8.694;2023-05-21T03:17:42;99321.03;;;16.06;49.25
38716;BME280;24833;49.324;8.694;2023-05-21T03:20:11;99323.72;;;16.06;49.28
38716;BME280;24833;49.324;8.694;2023-05-21T03:22:45;99326.88;;;16.03;49.17
38716;BME280;24833;49.324;8.694;2023-05-21T03:25:12;99324.19;;;16.03;49.25
38716;BME280;24833;49.324;8.694;2023-05-21T03:27:39;99319.31;;;16.00;49.32
38716;BME280;24833;49.324;8.694;2023-05-21T03:30:18;99324.13;;;15.98;49.18
38716;BME280;24833;49.324;8.694;2023-05-21T03:33:06;99326.22;;;15.96;48.81
38716;BME280;24833;49.324;8.694;2023-05-21T03:35:33;99320.28;;;15.94;49.27
38716;BME280;24833;49.324;8.694;2023-05-21T03:38:01;99327.78;;;15.92;49.14
38716;BME280;24833;49.324;8.694;2023-05-21T03:40:28;99328.00;;;15.91;49.68
38716;BME280;24833;49.324;8.694;2023-05-21T03:42:55;99317.72;;;15.88;50.13
38716;BME280;24833;49.324;8.694;2023-05-21T03:45:22;99326.06;;;15.86;49.73
38716;BME280;24833;49.324;8.694;2023-05-21T03:48:03;99325.44;;;15.84;49.28
38716;BME280;24833;49.324;8.694;2023-05-21T03:50:30;99323.00;;;15.83;49.58
38716;BME280;24833;49.324;8.694;2023-05-21T03:52:57;99329.72;;;15.80;49.33
38716;BME280;24833;49.324;8.694;2023-05-21T03:55:24;99328.06;;;15.79;49.89
38716;BME280;24833;49.324;8.694;2023-05-21T03:57:52;99325.84;;;15.76;50.06
38716;BME280;24833;49.324;8.694;2023-05-21T04:00:19;99323.66;;;15.73;49.30
38716;BME280;24833;49.324;8.694;2023-05-21T04:02:47;99323.06;;;15.71;50.18
38716;BME280;24833;49.324;8.694;2023-05-21T04:05:16;99324.34;;;15.68;49.50
38716;BME280;24833;49.324;8.694;2023-05-21T04:07:44;99326.25;;;15.68;49.77
38716;BME280;24833;49.324;8.694;2023-05-21T04:10:12;99324.84;;;15.65;49.75
38716;BME280;24833;49.324;8.694;2023-05-21T04:12:39;99323.19;;;15.64;50.29
38716;BME280;24833;49.324;8.694;2023-05-21T04:15:07;99324.25;;;15.63;50.38
38716;BME280;24833;49.324;8.694;2023-05-21T04:17:34;99330.69;;;15.62;50.08
38716;BME280;24833;49.324;8.694;2023-05-21T04:20:01;99330.91;;;15.61;50.18
38716;BME280;24833;49.324;8.694;2023-05-21T04:22:30;99333.03;;;15.59;49.88
38716;BME280;24833;49.324;8.694;2023-05-21T04:24:57;99340.28;;;15.58;50.26
38716;BME280;24833;49.324;8.694;2023-05-21T04:27:28;99337.81;;;15.57;50.16
38716;BME280;24833;49.324;8.694;2023-05-21T04:29:56;99345.06;;;15.56;50.16
38716;BME280;24833;49.324;8.694;2023-05-21T04:32:23;99340.75;;;15.55;50.15
38716;BME280;24833;49.324;8.694;2023-05-21T04:34:50;99347.19;;;15.54;50.31
38716;BME280;24833;49.324;8.694;2023-05-21T04:37:17;99344.50;;;15.54;50.11
38716;BME280;24833;49.324;8.694;2023-05-21T04:39:45;99349.06;;;15.53;50.70
38716;BME280;24833;49.324;8.694;2023-05-21T04:42:12;99349.06;;;15.53;50.20
38716;BME280;24833;49.324;8.694;2023-05-21T04:44:40;99342.06;;;15.52;50.72
38716;BME280;24833;49.324;8.694;2023-05-21T04:47:10;99352.81;;;15.52;50.86
38716;BME280;24833;49.324;8.694;2023-05-21T04:49:38;99345.81;;;15.51;50.51
38716;BME280;24833;49.324;8.694;2023-05-21T04:52:05;99347.44;;;15.52;50.71
38716;BME280;24833;49.324;8.694;2023-05-21T04:54:32;99351.19;;;15.51;50.74
38716;BME280;24833;49.324;8.694;2023-05-21T04:56:59;99355.53;;;15.52;50.36
38716;BME280;24833;49.324;8.694;2023-05-21T04:59:26;99350.13;;;15.52;50.75
38716;BME280;24833;49.324;8.694;2023-05-21T05:01:53;99350.13;;;15.52;50.76
38716;BME280;24833;49.324;8.694;2023-05-21T05:04:21;99346.63;;;15.52;51.02
38716;BME280;24833;49.324;8.694;2023-05-21T05:06:48;99347.44;;;15.52;50.85
38716;BME280;24833;49.324;8.694;2023-05-21T05:09:15;99352.81;;;15.52;50.65
38716;BME280;24833;49.324;8.694;2023-05-21T05:11:43;99356.34;;;15.53;51.44
38716;BME280;24833;49.324;8.694;2023-05-21T05:14:10;99355.28;;;15.54;51.13
38716;BME280;24833;49.324;8.694;2023-05-21T05:16:37;99351.78;;;15.53;51.38
38716;BME280;24833;49.324;8.694;2023-05-21T05:19:04;99349.06;;;15.53;50.95
38716;BME280;24833;49.324;8.694;2023-05-21T05:21:32;99359.84;;;15.53;51.58
38716;BME280;24833;49.324;8.694;2023-05-21T05:23:59;99360.66;;;15.54;51.13
38716;BME280;24833;49.324;8.694;2023-05-21T05:26:28;99346.13;;;15.55;51.24
38716;BME280;24833;49.324;8.694;2023-05-21T05:28:55;99353.97;;;15.57;51.26
38716;BME280;24833;49.324;8.694;2023-05-21T05:31:22;99360.16;;;15.57;51.56
38716;BME280;24833;49.324;8.694;2023-05-21T05:33:51;99356.19;;;15.60;50.97
38716;BME280;24833;49.324;8.694;2023-05-21T05:36:18;99354.09;;;15.62;51.27
38716;BME280;24833;49.324;8.694;2023-05-21T05:38:45;99355.13;;;15.61;51.68
38716;BME280;24833;49.324;8.694;2023-05-21T05:41:12;99355.75;;;15.63;51.41
38716;BME280;24833;49.324;8.694;2023-05-21T05:43:40;99354.69;;;15.64;51.83
38716;BME280;24833;49.324;8.694;2023-05-21T05:46:08;99358.78;;;15.66;51.65
38716;BME280;24833;49.324;8.694;2023-05-21T05:48:35;99365.00;;;15.67;51.86
38716;BME280;24833;49.324;8.694;2023-05-21T05:51:02;99365.56;;;15.69;52.76
38716;BME280;24833;49.324;8.694;2023-05-21T05:53:30;99369.63;;;15.71;51.99
38716;BME280;24833;49.324;8.694;2023-05-21T05:55:58;99363.22;;;15.72;51.46
38716;BME280;24833;49.324;8.694;2023-05-21T05:58:26;99364.59;;;15.75;52.20
38716;BME280;24833;49.324;8.694;2023-05-21T06:00:57;99361.91;;;15.75;52.06
38716;BME280;24833;49.324;8.694;2023-05-21T06:03:26;99357.91;;;15.77;52.49
38716;BME280;24833;49.324;8.694;2023-05-21T06:05:54;99364.72;;;15.80;52.16
38716;BME280;24833;49.324;8.694;2023-05-21T06:08:27;99361.53;;;15.83;52.02
38716;BME280;24833;49.324;8.694;2023-05-21T06:10:54;99356.75;;;15.85;52.01
38716;BME280;24833;49.324;8.694;2023-05-21T06:13:22;99372.41;;;15.88;52.22
38716;BME280;24833;49.324;8.694;2023-05-21T06:15:49;99362.78;;;15.92;51.94
38716;BME280;24833;49.324;8.694;2023-05-21T06:18:16;99363.13;;;15.96;52.64
38716;BME280;24833;49.324;8.694;2023-05-21T06:20:43;99359.72;;;16.00;52.38
38716;BME280;24833;49.324;8.694;2023-05-21T06:23:11;99367.06;;;16.05;52.56
38716;BME280;24833;49.324;8.694;2023-05-21T06:25:39;99366.94;;;16.12;52.01
38716;BME280;24833;49.324;8.694;2023-05-21T06:28:07;99369.44;;;16.18;52.29
38716;BME280;24833;49.324;8.694;2023-05-21T06:30:34;99367.44;;;16.25;52.44
38716;BME280;24833;49.324;8.694;2023-05-21T06:33:01;99375.94;;;16.34;52.61
38716;BME280;24833;49.324;8.694;2023-05-21T06:35:29;99370.16;;;16.42;52.45
38716;BME280;24833;49.324;8.694;2023-05-21T06:37:58;99365.16;;;16.51;52.38
38716;BME280;24833;49.324;8.694;2023-05-21T06:40:25;99373.69;;;16.59;52.34
38716;BME280;24833;49.324;8.694;2023-05-21T06:42:55;99370.91;;;16.71;52.54
38716;BME280;24833;49.324;8.694;2023-05-21T06:46:00;99372.47;;;16.84;53.04
38716;BME280;24833;49.324;8.694;2023-05-21T06:48:36;99376.97;;;16.95;52.47
38716;BME280;24833;49.324;8.694;2023-05-21T06:51:04;99375.25;;;17.06;52.94
38716;BME280;24833;49.324;8.694;2023-05-21T06:53:32;99374.31;;;17.17;52.44
38716;BME280;24833;49.324;8.694;2023-05-21T06:55:59;99371.50;;;17.29;52.54
38716;BME280;24833;49.324;8.694;2023-05-21T06:58:34;99374.91;;;17.41;53.00
38716;BME280;24833;49.324;8.694;2023-05-21T07:01:01;99372.09;;;17.53;53.92
38716;BME280;24833;49.324;8.694;2023-05-21T07:03:28;99377.34;;;17.64;52.69
38716;BME280;24833;49.324;8.694;2023-05-21T07:05:56;99372.94;;;17.75;52.98
38716;BME280;24833;49.324;8.694;2023-05-21T07:08:24;99379.84;;;17.88;53.67
38716;BME280;24833;49.324;8.694;2023-05-21T07:10:52;99392.13;;;18.01;53.59
38716;BME280;24833;49.324;8.694;2023-05-21T07:13:19;99393.03;;;18.11;53.14
38716;BME280;24833;49.324;8.694;2023-05-21T07:15:46;99388.31;;;18.23;53.02
38716;BME280;24833;49.324;8.694;2023-05-21T07:18:13;99389.78;;;18.36;52.92
38716;BME280;24833;49.324;8.694;2023-05-21T07:20:40;99392.34;;;18.48;53.07
38716;BME280;24833;49.324;8.694;2023-05-21T07:23:11;99391.91;;;18.61;53.06
38716;BME280;24833;49.324;8.694;2023-05-21T07:25:38;99395.84;;;18.75;53.02
38716;BME280;24833;49.324;8.694;2023-05-21T07:28:05;99395.41;;;18.89;53.20
38716;BME280;24833;49.324;8.694;2023-05-21T07:30:34;99399.56;;;19.01;53.41
38716;BME280;24833;49.324;8.694;2023-05-21T07:33:04;99387.47;;;19.14;53.08
38716;BME280;24833;49.324;8.694;2023-05-21T07:35:31;99385.38;;;19.26;53.29
38716;BME280;24833;49.324;8.694;2023-05-21T07:37:58;99382.44;;;19.38;53.23
38716;BME280;24833;49.324;8.694;2023-05-21T07:40:26;99380.34;;;19.50;53.30
38716;BME280;24833;49.324;8.694;2023-05-21T07:42:53;99378.53;;;19.61;53.10
38716;BME280;24833;49.324;8.694;2023-05-21T07:45:23;99379.38;;;19.72;53.30
38716;BME280;24833;49.324;8.694;2023-05-21T07:47:50;99378.06;;;19.84;53.16
38716;BME280;24833;49.324;8.694;2023-05-21T07:50:18;99375.41;;;19.95;53.48
38716;BME280;24833;49.324;8.694;2023-05-21T07:52:45;99377.88;;;20.06;53.41
38716;BME280;24833;49.324;8.694;2023-05-21T07:55:12;99371.38;;;20.18;53.46
38716;BME280;24833;49.324;8.694;2023-05-21T07:57:40;99365.72;;;20.29;53.63
38716;BME280;24833;49.324;8.694;2023-05-21T08:00:11;99374.13;;;20.43;53.50
38716;BME280;24833;49.324;8.694;2023-05-21T08:02:42;99373.91;;;20.55;53.08
38716;BME280;24833;49.324;8.694;2023-05-21T08:05:11;99368.22;;;20.66;54.23
38716;BME280;24833;49.324;8.694;2023-05-21T08:07:39;99373.34;;;20.78;52.94
38716;BME280;24833;49.324;8.694;2023-05-21T08:10:06;99376.06;;;20.88;53.37
38716;BME280;24833;49.324;8.694;2023-05-21T08:12:34;99374.94;;;21.00;53.21
38716;BME280;24833;49.324;8.694;2023-05-21T08:15:02;99374.13;;;21.09;53.20
38716;BME280;24833;49.324;8.694;2023-05-21T08:17:32;99366.50;;;21.21;52.68
38716;BME280;24833;49.324;8.694;2023-05-21T08:19:59;99375.47;;;21.32;52.77
38716;BME280;24833;49.324;8.694;2023-05-21T08:22:28;99364.56;;;21.42;52.91
38716;BME280;24833;49.324;8.694;2023-05-21T08:24:55;99363.47;;;21.54;52.84
38716;BME280;24833;49.324;8.694;2023-05-21T08:27:22;99357.97;;;21.64;52.60
38716;BME280;24833;49.324;8.694;2023-05-21T08:29:56;99369.31;;;21.76;52.83
38716;BME280;24833;49.324;8.694;2023-05-21T08:32:23;99364.91;;;21.90;52.66
38716;BME280;24833;49.324;8.694;2023-05-21T08:34:50;99367.00;;;22.03;52.86
38716;BME280;24833;49.324;8.694;2023-05-21T08:37:39;99365.28;;;22.23;53.06
38716;BME280;24833;49.324;8.694;2023-05-21T08:40:15;99361.59;;;22.43;52.66
38716;BME280;24833;49.324;8.694;2023-05-21T08:42:49;99360.13;;;22.61;52.90
38716;BME280;24833;49.324;8.694;2023-05-21T08:45:46;99363.19;;;22.83;52.90
38716;BME280;24833;49.324;8.694;2023-05-21T08:48:22;99352.13;;;23.03;53.10
38716;BME280;24833;49.324;8.694;2023-05-21T08:50:52;99358.69;;;23.26;52.56
38716;BME280;24833;49.324;8.694;2023-05-21T08:53:32;99365.00;;;23.46;52.72
38716;BME280;24833;49.324;8.694;2023-05-21T08:56:00;99353.38;;;23.64;52.37
38716;BME280;24833;49.324;8.694;2023-05-21T08:58:46;99350.97;;;23.81;52.77
38716;BME280;24833;49.324;8.694;2023-05-21T09:01:18;99349.34;;;23.99;52.37
38716;BME280;24833;49.324;8.694;2023-05-21T09:03:49;99350.22;;;24.13;52.09
38716;BME280;24833;49.324;8.694;2023-05-21T09:06:18;99355.75;;;24.27;52.04
38716;BME280;24833;49.324;8.694;2023-05-21T09:08:57;99353.13;;;24.41;51.85
38716;BME280;24833;49.324;8.694;2023-05-21T09:11:32;99355.59;;;24.56;52.00
38716;BME280;24833;49.324;8.694;2023-05-21T09:13:59;99355.44;;;24.66;51.38
38716;BME280;24833;49.324;8.694;2023-05-21T09:16:36;99355.84;;;24.73;51.16
38716;BME280;24833;49.324;8.694;2023-05-21T09:19:03;99356.38;;;24.76;50.92
38716;BME280;24833;49.324;8.694;2023-05-21T09:21:33;99356.28;;;24.81;50.84
38716;BME280;24833;49.324;8.694;2023-05-21T09:24:13;99363.28;;;24.87;50.81
38716;BME280;24833;49.324;8.694;2023-05-21T09:26:44;99362.06;;;24.93;50.70
38716;BME280;24833;49.324;8.694;2023-05-21T09:29:12;99358.13;;;24.99;50.38
38716;BME280;24833;49.324;8.694;2023-05-21T09:31:43;99359.75;;;25.00;50.13
38716;BME280;24833;49.324;8.694;2023-05-21T09:34:13;99364.13;;;25.01;50.12
38716;BME280;24833;49.324;8.694;2023-05-21T09:36:42;99364.06;;;25.06;50.33
38716;BME280;24833;49.324;8.694;2023-05-21T09:39:10;99362.34;;;25.10;50.17
38716;BME280;24833;49.324;8.694;2023-05-21T09:41:42;99360.53;;;25.19;50.48
38716;BME280;24833;49.324;8.694;2023-05-21T09:44:09;99359.22;;;25.31;50.45
38716;BME280;24833;49.324;8.694;2023-05-21T09:46:41;99357.69;;;25.38;50.42
38716;BME280;24833;49.324;8.694;2023-05-21T09:49:22;99358.59;;;25.47;50.36
38716;BME280;24833;49.324;8.694;2023-05-21T09:51:57;99352.63;;;25.59;50.57
38716;BME280;24833;49.324;8.694;2023-05-21T09:54:30;99351.00;;;25.72;50.51
38716;BME280;24833;49.324;8.694;2023-05-21T09:57:00;99357.09;;;25.83;50.36
38716;BME280;24833;49.324;8.694;2023-05-21T09:59:38;99359.28;;;25.94;50.51
38716;BME280;24833;49.324;8.694;2023-05-21T10:02:22;99354.09;;;26.06;50.48
38716;BME280;24833;49.324;8.694;2023-05-21T10:04:51;99353.75;;;26.22;50.42
38716;BME280;24833;49.324;8.694;2023-05-21T10:07:21;99357.84;;;26.33;50.51
38716;BME280;24833;49.324;8.694;2023-05-21T10:09:56;99361.91;;;26.49;50.71
38716;BME280;24833;49.324;8.694;2023-05-21T10:12:24;99359.09;;;26.63;50.02
38716;BME280;24833;49.324;8.694;2023-05-21T10:14:59;99359.03;;;26.77;50.65
38716;BME280;24833;49.324;8.694;2023-05-21T10:17:28;99348.47;;;26.93;50.36
38716;BME280;24833;49.324;8.694;2023-05-21T10:19:56;99360.38;;;27.10;50.71
38716;BME280;24833;49.324;8.694;2023-05-21T10:22:25;99363.34;;;27.31;50.53
38716;BME280;24833;49.324;8.694;2023-05-21T10:24:52;99368.59;;;27.50;50.38
38716;BME280;24833;49.324;8.694;2023-05-21T10:27:20;99345.28;;;27.70;50.51
38716;BME280;24833;49.324;8.694;2023-05-21T10:29:49;99347.72;;;27.89;50.57
38716;BME280;24833;49.324;8.694;2023-05-21T10:32:16;99346.31;;;28.09;50.68
38716;BME280;24833;49.324;8.694;2023-05-21T10:34:45;99338.38;;;28.24;50.33
38716;BME280;24833;49.324;8.694;2023-05-21T10:37:12;99346.31;;;28.43;50.00
38716;BME280;24833;49.324;8.694;2023-05-21T10:39:41;99350.34;;;28.63;50.26
38716;BME280;24833;49.324;8.694;2023-05-21T10:45:31;99340.25;;;28.93;49.33
38716;BME280;24833;49.324;8.694;2023-05-21T10:51:23;99344.69;;;29.15;49.29
38716;BME280;24833;49.324;8.694;2023-05-21T10:56:58;99340.19;;;29.57;49.60
38716;BME280;24833;49.324;8.694;2023-05-21T10:59:40;99343.22;;;29.85;49.26
38716;BME280;24833;49.324;8.694;2023-05-21T11:02:11;99338.22;;;30.29;49.20
38716;BME280;24833;49.324;8.694;2023-05-21T11:04:40;99337.50;;;30.74;48.48
38716;BME280;24833;49.324;8.694;2023-05-21T11:07:11;99334.69;;;31.19;48.13
38716;BME280;24833;49.324;8.694;2023-05-21T11:09:38;99334.72;;;31.56;45.27
38716;BME280;24833;49.324;8.694;2023-05-21T11:12:05;99340.00;;;31.86;45.37
38716;BME280;24833;49.324;8.694;2023-05-21T11:14:40;99330.97;;;32.13;45.99
38716;BME280;24833;49.324;8.694;2023-05-21T11:17:12;99330.59;;;32.55;45.46
38716;BME280;24833;49.324;8.694;2023-05-21T11:19:43;99325.44;;;32.97;45.49
38716;BME280;24833;49.324;8.694;2023-05-21T11:22:26;99322.47;;;33.38;43.25
38716;BME280;24833;49.324;8.694;2023-05-21T11:24:55;99324.75;;;33.67;43.13
38716;BME280;24833;49.324;8.694;2023-05-21T11:27:35;99320.75;;;34.00;41.43
38716;BME280;24833;49.324;8.694;2023-05-21T11:30:17;99316.88;;;34.24;40.61
38716;BME280;24833;49.324;8.694;2023-05-21T11:38:17;99320.66;;;34.74;39.47
38716;BME280;24833;49.324;8.694;2023-05-21T11:40:53;99319.72;;;34.89;35.77
38716;BME280;24833;49.324;8.694;2023-05-21T11:43:21;99315.81;;;35.13;39.72
38716;BME280;24833;49.324;8.694;2023-05-21T11:45:51;99322.34;;;35.47;39.54
38716;BME280;24833;49.324;8.694;2023-05-21T11:48:25;99323.81;;;35.67;38.43
38716;BME280;24833;49.324;8.694;2023-05-21T11:50:54;99320.25;;;35.93;38.15
38716;BME280;24833;49.324;8.694;2023-05-21T11:53:23;99327.19;;;36.10;37.66
38716;BME280;24833;49.324;8.694;2023-05-21T11:55:50;99325.75;;;36.20;35.66
38716;BME280;24833;49.324;8.694;2023-05-21T11:58:23;99327.09;;;36.33;35.82
38716;BME280;24833;49.324;8.694;2023-05-21T12:00:50;99316.09;;;36.44;35.21
38716;BME280;24833;49.324;8.694;2023-05-21T12:03:17;99314.25;;;36.55;34.55
38716;BME280;24833;49.324;8.694;2023-05-21T12:05:46;99316.91;;;36.44;33.94
38716;BME280;24833;49.324;8.694;2023-05-21T12:08:22;99315.31;;;36.43;33.03
38716;BME280;24833;49.324;8.694;2023-05-21T12:10:58;99316.50;;;36.42;33.42
38716;BME280;24833;49.324;8.694;2023-05-21T12:13:26;99317.50;;;36.27;32.59
38716;BME280;24833;49.324;8.694;2023-05-21T12:15:53;99320.50;;;36.15;32.72
38716;BME280;24833;49.324;8.694;2023-05-21T12:18:21;99320.75;;;36.02;33.20
38716;BME280;24833;49.324;8.694;2023-05-21T12:20:50;99318.66;;;35.92;32.88
38716;BME280;24833;49.324;8.694;2023-05-21T12:23:24;99322.41;;;35.81;31.42
38716;BME280;24833;49.324;8.694;2023-05-21T12:25:51;99325.81;;;35.67;31.85
38716;BME280;24833;49.324;8.694;2023-05-21T12:28:20;99318.09;;;35.57;30.97
38716;BME280;24833;49.324;8.694;2023-05-21T12:30:47;99312.50;;;35.53;32.17
38716;BME280;24833;49.324;8.694;2023-05-21T12:33:15;99311.88;;;35.40;31.19
38716;BME280;24833;49.324;8.694;2023-05-21T12:35:47;99311.34;;;35.31;32.26
38716;BME280;24833;49.324;8.694;2023-05-21T12:38:16;99310.31;;;35.16;30.67
38716;BME280;24833;49.324;8.694;2023-05-21T12:40:43;99310.56;;;35.08;31.08
38716;BME280;24833;49.324;8.694;2023-05-21T12:43:11;99303.28;;;35.00;31.36
38716;BME280;24833;49.324;8.694;2023-05-21T12:45:38;99295.41;;;34.82;31.21
38716;BME280;24833;49.324;8.694;2023-05-21T12:48:06;99296.78;;;34.69;32.09
38716;BME280;24833;49.324;8.694;2023-05-21T12:50:37;99303.50;;;34.68;32.32
38716;BME280;24833;49.324;8.694;2023-05-21T12:53:08;99312.19;;;34.66;32.77
38716;BME280;24833;49.324;8.694;2023-05-21T12:55:36;99303.78;;;34.63;32.34
38716;BME280;24833;49.324;8.694;2023-05-21T12:58:04;99303.78;;;34.63;32.23
38716;BME280;24833;49.324;8.694;2023-05-21T13:00:34;99295.16;;;34.68;32.49
38716;BME280;24833;49.324;8.694;2023-05-21T13:03:02;99315.47;;;34.72;32.30
38716;BME280;24833;49.324;8.694;2023-05-21T13:05:32;99293.78;;;34.78;32.73
38716;BME280;24833;49.324;8.694;2023-05-21T13:07:59;99303.06;;;34.89;32.72
38716;BME280;24833;49.324;8.694;2023-05-21T13:10:26;99308.34;;;34.94;32.33
38716;BME280;24833;49.324;8.694;2023-05-21T13:12:53;99294.22;;;35.03;31.91
38716;BME280;24833;49.324;8.694;2023-05-21T13:15:20;99307.53;;;35.16;32.33
38716;BME280;24833;49.324;8.694;2023-05-21T13:17:47;99300.97;;;35.28;31.73
38716;BME280;24833;49.324;8.694;2023-05-21T13:20:18;99302.69;;;35.36;31.99
38716;BME280;24833;49.324;8.694;2023-05-21T13:22:50;99300.25;;;35.31;31.25
38716;BME280;24833;49.324;8.694;2023-05-21T13:25:21;99306.41;;;35.21;30.58
38716;BME280;24833;49.324;8.694;2023-05-21T13:27:51;99301.47;;;35.11;31.03